Kasif Kalkavan — V7IX7 — position and weather

sailwx.info

Track history (hours):
 
Tides and Currents Weather Stations Pressure Air Temp Water Temp Dewpoint Dewpoint Depression Visibility Wind Speed Wind Dir Waves Ship Positions

Kasif Kalkavan

Last reported at 2014-Jul-28 02:32 UTC. Time now 2014-Jul-29 10:42 UTC.
Position N 46°20' E 030°54'.

Type: Cargo ship. MMSI: 538090190.

Date/timePositionNaut miles runAvg speedWind from/ knotsBaromVisibWave heightAir tempDewpointWater temp
2014-Jul-28 02:32N 46°20' E 030°54'1615.7
2014-Jul-28 01:31N 46°08' E 031°08'1515.7
2014-Jul-28 00:33N 45°58' E 031°24'86 9.2
2014-Jul-27 15:10N 44°52' E 032°45'1114.4
2014-Jul-27 14:23N 44°44' E 032°55'7715.1
2014-Jul-27 09:14N 43°52' E 034°15'1214.8
2014-Jul-27 08:26N 43°45' E 034°29'  
2014-Jul-24 02:06N 42°13' E 039°20'1415.8
2014-Jul-24 01:11N 42°13' E 039°00'45514.9
2014-Jul-22 18:33N 40°59' E 028°60'1413.0
2014-Jul-22 17:31N 40°48' E 028°49'1 0.8
2014-Jul-22 16:24N 40°48' E 028°48'  
Track history (hours):
 
Tides and Currents Weather Stations Pressure Air Temp Water Temp Dewpoint Dewpoint Depression Visibility Wind Speed Wind Dir Waves Ship Positions

Kasif Kalkavan

Last reported at 2014-Jul-28 02:32 UTC. Time now 2014-Jul-29 10:42 UTC.
Position N 46°20' E 030°54'.

Type: Cargo ship. MMSI: 538090190.

Date/timePositionNaut miles runAvg speedWind from/ knotsBaromVisibWave heightAir tempDewpointWater temp
2014-Jul-28 02:32N 46°20' E 030°54'1615.7
2014-Jul-28 01:31N 46°08' E 031°08'1515.7
2014-Jul-28 00:33N 45°58' E 031°24'86 9.2
2014-Jul-27 15:10N 44°52' E 032°45'1114.4
2014-Jul-27 14:23N 44°44' E 032°55'7715.1
2014-Jul-27 09:14N 43°52' E 034°15'1214.8
2014-Jul-27 08:26N 43°45' E 034°29'  
2014-Jul-24 02:06N 42°13' E 039°20'1415.8
2014-Jul-24 01:11N 42°13' E 039°00'45514.9
2014-Jul-22 18:33N 40°59' E 028°60'1413.0
2014-Jul-22 17:31N 40°48' E 028°49'1 0.8
2014-Jul-22 16:24N 40°48' E 028°48'  

Dump ship's entire track history